sensor_id;sensor_type;location;lat;lon;timestamp;P1;durP1;ratioP1;P2;durP2;ratioP2
53108;SDS011;39007;53.090;6.074;2024-03-02T00:00:08;5.88;;;2.78;;
53108;SDS011;39007;53.090;6.074;2024-03-02T00:02:45;4.68;;;2.80;;
53108;SDS011;39007;53.090;6.074;2024-03-02T00:05:12;5.97;;;2.72;;
53108;SDS011;39007;53.090;6.074;2024-03-02T00:07:43;4.70;;;2.60;;
53108;SDS011;39007;53.090;6.074;2024-03-02T00:10:10;9.65;;;3.13;;
53108;SDS011;39007;53.090;6.074;2024-03-02T00:12:39;5.70;;;2.70;;
53108;SDS011;39007;53.090;6.074;2024-03-02T00:15:52;6.82;;;3.08;;
53108;SDS011;39007;53.090;6.074;2024-03-02T00:17:53;7.85;;;3.28;;
53108;SDS011;39007;53.090;6.074;2024-03-02T00:20:20;6.20;;;2.80;;
53108;SDS011;39007;53.090;6.074;2024-03-02T00:22:47;5.22;;;3.10;;
53108;SDS011;39007;53.090;6.074;2024-03-02T00:25:13;6.00;;;3.17;;
53108;SDS011;39007;53.090;6.074;2024-03-02T00:27:39;4.43;;;2.92;;
53108;SDS011;39007;53.090;6.074;2024-03-02T00:35:18;4.60;;;2.90;;
53108;SDS011;39007;53.090;6.074;2024-03-02T00:37:47;5.63;;;3.40;;
53108;SDS011;39007;53.090;6.074;2024-03-02T00:40:13;7.03;;;3.22;;
53108;SDS011;39007;53.090;6.074;2024-03-02T00:42:39;7.90;;;2.90;;
53108;SDS011;39007;53.090;6.074;2024-03-02T00:45:08;5.90;;;2.70;;
53108;SDS011;39007;53.090;6.074;2024-03-02T00:47:38;5.07;;;2.70;;
53108;SDS011;39007;53.090;6.074;2024-03-02T00:50:05;5.40;;;2.90;;
53108;SDS011;39007;53.090;6.074;2024-03-02T00:52:31;5.05;;;3.00;;
53108;SDS011;39007;53.090;6.074;2024-03-02T00:54:58;4.97;;;2.55;;
53108;SDS011;39007;53.090;6.074;2024-03-02T00:57:24;5.32;;;2.60;;
53108;SDS011;39007;53.090;6.074;2024-03-02T00:59:51;5.07;;;2.60;;
53108;SDS011;39007;53.090;6.074;2024-03-02T01:02:17;4.75;;;2.85;;
53108;SDS011;39007;53.090;6.074;2024-03-02T01:04:45;4.97;;;2.83;;
53108;SDS011;39007;53.090;6.074;2024-03-02T01:07:11;5.25;;;3.13;;
53108;SDS011;39007;53.090;6.074;2024-03-02T01:09:37;4.72;;;2.90;;
53108;SDS011;39007;53.090;6.074;2024-03-02T01:12:03;5.72;;;2.70;;
53108;SDS011;39007;53.090;6.074;2024-03-02T01:14:29;5.97;;;2.90;;
53108;SDS011;39007;53.090;6.074;2024-03-02T01:17:01;4.47;;;2.72;;
53108;SDS011;39007;53.090;6.074;2024-03-02T01:19:29;4.40;;;2.30;;
53108;SDS011;39007;53.090;6.074;2024-03-02T01:21:55;5.88;;;2.78;;
53108;SDS011;39007;53.090;6.074;2024-03-02T01:24:22;5.00;;;2.63;;
53108;SDS011;39007;53.090;6.074;2024-03-02T01:26:48;7.35;;;2.63;;
53108;SDS011;39007;53.090;6.074;2024-03-02T01:29:14;9.10;;;3.13;;
53108;SDS011;39007;53.090;6.074;2024-03-02T01:31:40;5.50;;;3.00;;
53108;SDS011;39007;53.090;6.074;2024-03-02T01:34:07;7.15;;;2.83;;
53108;SDS011;39007;53.090;6.074;2024-03-02T01:36:33;5.97;;;2.85;;
53108;SDS011;39007;53.090;6.074;2024-03-02T01:38:59;6.50;;;2.70;;
53108;SDS011;39007;53.090;6.074;2024-03-02T01:41:26;4.88;;;2.80;;
53108;SDS011;39007;53.090;6.074;2024-03-02T01:43:52;4.95;;;2.70;;
53108;SDS011;39007;53.090;6.074;2024-03-02T01:46:18;5.65;;;2.50;;
53108;SDS011;39007;53.090;6.074;2024-03-02T01:48:44;4.63;;;2.28;;
53108;SDS011;39007;53.090;6.074;2024-03-02T01:51:10;5.68;;;2.55;;
53108;SDS011;39007;53.090;6.074;2024-03-02T01:53:37;7.80;;;3.00;;
53108;SDS011;39007;53.090;6.074;2024-03-02T01:56:03;5.15;;;2.90;;
53108;SDS011;39007;53.090;6.074;2024-03-02T01:58:29;6.47;;;2.60;;
53108;SDS011;39007;53.090;6.074;2024-03-02T02:00:55;4.75;;;2.60;;
53108;SDS011;39007;53.090;6.074;2024-03-02T02:03:21;5.03;;;2.70;;
53108;SDS011;39007;53.090;6.074;2024-03-02T02:05:47;5.15;;;2.28;;
53108;SDS011;39007;53.090;6.074;2024-03-02T02:08:13;4.78;;;2.60;;
53108;SDS011;39007;53.090;6.074;2024-03-02T02:10:39;8.00;;;2.50;;
53108;SDS011;39007;53.090;6.074;2024-03-02T02:13:05;4.90;;;2.38;;
53108;SDS011;39007;53.090;6.074;2024-03-02T02:15:33;5.05;;;2.40;;
53108;SDS011;39007;53.090;6.074;2024-03-02T02:18:01;5.03;;;2.58;;
53108;SDS011;39007;53.090;6.074;2024-03-02T02:20:28;4.40;;;2.35;;
53108;SDS011;39007;53.090;6.074;2024-03-02T02:25:27;5.75;;;2.47;;
53108;SDS011;39007;53.090;6.074;2024-03-02T02:27:54;6.53;;;2.35;;
53108;SDS011;39007;53.090;6.074;2024-03-02T02:30:30;4.80;;;2.40;;
53108;SDS011;39007;53.090;6.074;2024-03-02T02:32:57;5.40;;;2.30;;
53108;SDS011;39007;53.090;6.074;2024-03-02T02:35:23;5.00;;;2.60;;
53108;SDS011;39007;53.090;6.074;2024-03-02T02:37:49;4.65;;;2.50;;
53108;SDS011;39007;53.090;6.074;2024-03-02T02:40:16;4.85;;;2.40;;
53108;SDS011;39007;53.090;6.074;2024-03-02T02:42:44;4.35;;;2.40;;
53108;SDS011;39007;53.090;6.074;2024-03-02T02:45:10;6.18;;;2.40;;
53108;SDS011;39007;53.090;6.074;2024-03-02T02:47:38;5.93;;;2.42;;
53108;SDS011;39007;53.090;6.074;2024-03-02T02:50:04;7.78;;;2.63;;
53108;SDS011;39007;53.090;6.074;2024-03-02T02:52:31;6.47;;;2.58;;
53108;SDS011;39007;53.090;6.074;2024-03-02T02:54:58;4.38;;;2.30;;
53108;SDS011;39007;53.090;6.074;2024-03-02T02:57:24;4.90;;;2.40;;
53108;SDS011;39007;53.090;6.074;2024-03-02T02:59:50;4.82;;;2.65;;
53108;SDS011;39007;53.090;6.074;2024-03-02T03:02:16;4.93;;;2.58;;
53108;SDS011;39007;53.090;6.074;2024-03-02T03:04:43;6.32;;;2.60;;
53108;SDS011;39007;53.090;6.074;2024-03-02T03:07:09;4.45;;;2.53;;
53108;SDS011;39007;53.090;6.074;2024-03-02T03:09:37;5.10;;;2.40;;
53108;SDS011;39007;53.090;6.074;2024-03-02T03:12:04;5.38;;;2.42;;
53108;SDS011;39007;53.090;6.074;2024-03-02T03:14:30;6.00;;;2.38;;
53108;SDS011;39007;53.090;6.074;2024-03-02T03:16:56;4.68;;;2.63;;
53108;SDS011;39007;53.090;6.074;2024-03-02T03:19:22;6.95;;;2.80;;
53108;SDS011;39007;53.090;6.074;2024-03-02T03:21:48;5.95;;;2.72;;
53108;SDS011;39007;53.090;6.074;2024-03-02T03:24:14;4.53;;;2.30;;
53108;SDS011;39007;53.090;6.074;2024-03-02T03:26:40;5.60;;;2.42;;
53108;SDS011;39007;53.090;6.074;2024-03-02T03:29:06;5.57;;;2.60;;
53108;SDS011;39007;53.090;6.074;2024-03-02T03:31:32;6.22;;;2.47;;
53108;SDS011;39007;53.090;6.074;2024-03-02T03:33:58;4.05;;;2.30;;
53108;SDS011;39007;53.090;6.074;2024-03-02T03:36:24;4.70;;;2.40;;
53108;SDS011;39007;53.090;6.074;2024-03-02T03:38:50;8.02;;;2.80;;
53108;SDS011;39007;53.090;6.074;2024-03-02T03:41:16;5.47;;;2.47;;
53108;SDS011;39007;53.090;6.074;2024-03-02T03:43:42;4.40;;;2.38;;
53108;SDS011;39007;53.090;6.074;2024-03-02T03:46:08;7.30;;;2.58;;
53108;SDS011;39007;53.090;6.074;2024-03-02T03:48:35;6.25;;;2.50;;
53108;SDS011;39007;53.090;6.074;2024-03-02T03:51:01;4.45;;;2.63;;
53108;SDS011;39007;53.090;6.074;2024-03-02T03:53:27;5.05;;;2.60;;
53108;SDS011;39007;53.090;6.074;2024-03-02T03:55:53;7.03;;;2.60;;
53108;SDS011;39007;53.090;6.074;2024-03-02T03:58:19;5.68;;;2.30;;
53108;SDS011;39007;53.090;6.074;2024-03-02T04:00:46;4.93;;;2.40;;
53108;SDS011;39007;53.090;6.074;2024-03-02T04:03:12;4.88;;;2.20;;
53108;SDS011;39007;53.090;6.074;2024-03-02T04:05:38;6.50;;;2.90;;
53108;SDS011;39007;53.090;6.074;2024-03-02T04:08:04;4.85;;;2.60;;
53108;SDS011;39007;53.090;6.074;2024-03-02T04:10:30;5.22;;;2.88;;
53108;SDS011;39007;53.090;6.074;2024-03-02T04:12:56;4.40;;;2.40;;
53108;SDS011;39007;53.090;6.074;2024-03-02T04:15:22;5.82;;;2.50;;
53108;SDS011;39007;53.090;6.074;2024-03-02T04:17:48;4.85;;;2.50;;
53108;SDS011;39007;53.090;6.074;2024-03-02T04:20:15;6.40;;;2.70;;
53108;SDS011;39007;53.090;6.074;2024-03-02T04:22:41;7.38;;;2.80;;
53108;SDS011;39007;53.090;6.074;2024-03-02T04:25:07;4.63;;;2.20;;
53108;SDS011;39007;53.090;6.074;2024-03-02T04:27:34;5.32;;;2.55;;
53108;SDS011;39007;53.090;6.074;2024-03-02T04:30:00;5.50;;;2.50;;
53108;SDS011;39007;53.090;6.074;2024-03-02T04:32:26;5.25;;;2.30;;
53108;SDS011;39007;53.090;6.074;2024-03-02T04:34:53;5.22;;;2.53;;
53108;SDS011;39007;53.090;6.074;2024-03-02T04:37:19;4.82;;;2.10;;
53108;SDS011;39007;53.090;6.074;2024-03-02T04:39:45;3.90;;;1.98;;
53108;SDS011;39007;53.090;6.074;2024-03-02T04:42:11;4.93;;;2.05;;
53108;SDS011;39007;53.090;6.074;2024-03-02T04:44:37;3.53;;;1.73;;
53108;SDS011;39007;53.090;6.074;2024-03-02T04:47:04;4.18;;;1.85;;
53108;SDS011;39007;53.090;6.074;2024-03-02T04:49:30;4.07;;;1.80;;
53108;SDS011;39007;53.090;6.074;2024-03-02T04:51:56;4.38;;;1.50;;
53108;SDS011;39007;53.090;6.074;2024-03-02T04:54:22;3.65;;;1.30;;
53108;SDS011;39007;53.090;6.074;2024-03-02T04:56:48;2.03;;;1.15;;
53108;SDS011;39007;53.090;6.074;2024-03-02T04:59:18;2.42;;;1.10;;
53108;SDS011;39007;53.090;6.074;2024-03-02T05:01:44;2.05;;;1.02;;
53108;SDS011;39007;53.090;6.074;2024-03-02T05:04:10;1.98;;;1.02;;
53108;SDS011;39007;53.090;6.074;2024-03-02T05:06:40;1.80;;;1.08;;
53108;SDS011;39007;53.090;6.074;2024-03-02T05:09:06;1.23;;;0.80;;
53108;SDS011;39007;53.090;6.074;2024-03-02T05:11:33;1.63;;;1.10;;
53108;SDS011;39007;53.090;6.074;2024-03-02T05:14:02;2.20;;;1.00;;
53108;SDS011;39007;53.090;6.074;2024-03-02T05:16:28;0.98;;;0.80;;
53108;SDS011;39007;53.090;6.074;2024-03-02T05:18:54;1.75;;;1.00;;
53108;SDS011;39007;53.090;6.074;2024-03-02T05:21:20;1.10;;;0.70;;
53108;SDS011;39007;53.090;6.074;2024-03-02T05:23:47;2.25;;;0.80;;
53108;SDS011;39007;53.090;6.074;2024-03-02T05:26:13;1.73;;;0.82;;
53108;SDS011;39007;53.090;6.074;2024-03-02T05:28:39;2.17;;;1.00;;
53108;SDS011;39007;53.090;6.074;2024-03-02T05:31:05;2.72;;;0.93;;
53108;SDS011;39007;53.090;6.074;2024-03-02T05:33:32;1.90;;;1.00;;
53108;SDS011;39007;53.090;6.074;2024-03-02T05:35:58;0.77;;;0.75;;
53108;SDS011;39007;53.090;6.074;2024-03-02T05:38:24;1.00;;;0.80;;
53108;SDS011;39007;53.090;6.074;2024-03-02T05:40:50;3.17;;;0.90;;
53108;SDS011;39007;53.090;6.074;2024-03-02T05:43:16;1.63;;;1.00;;
53108;SDS011;39007;53.090;6.074;2024-03-02T05:45:43;2.17;;;1.20;;
53108;SDS011;39007;53.090;6.074;2024-03-02T05:48:09;1.10;;;0.95;;
53108;SDS011;39007;53.090;6.074;2024-03-02T05:50:35;1.85;;;1.10;;
53108;SDS011;39007;53.090;6.074;2024-03-02T05:53:01;2.30;;;0.90;;
53108;SDS011;39007;53.090;6.074;2024-03-02T05:55:27;1.80;;;1.02;;
53108;SDS011;39007;53.090;6.074;2024-03-02T05:57:53;1.63;;;1.00;;
53108;SDS011;39007;53.090;6.074;2024-03-02T06:00:31;2.10;;;1.00;;
53108;SDS011;39007;53.090;6.074;2024-03-02T06:02:57;1.50;;;1.10;;
53108;SDS011;39007;53.090;6.074;2024-03-02T06:05:24;2.85;;;1.10;;
53108;SDS011;39007;53.090;6.074;2024-03-02T06:07:50;2.33;;;1.15;;
53108;SDS011;39007;53.090;6.074;2024-03-02T06:10:16;2.97;;;1.25;;
53108;SDS011;39007;53.090;6.074;2024-03-02T06:12:42;1.50;;;1.00;;
53108;SDS011;39007;53.090;6.074;2024-03-02T06:15:09;1.95;;;1.10;;
53108;SDS011;39007;53.090;6.074;2024-03-02T06:17:36;2.63;;;1.20;;
53108;SDS011;39007;53.090;6.074;2024-03-02T06:20:02;1.88;;;1.15;;
53108;SDS011;39007;53.090;6.074;2024-03-02T06:22:28;1.80;;;1.08;;
53108;SDS011;39007;53.090;6.074;2024-03-02T06:24:54;2.03;;;1.17;;
53108;SDS011;39007;53.090;6.074;2024-03-02T06:27:21;1.83;;;1.10;;
53108;SDS011;39007;53.090;6.074;2024-03-02T06:29:47;2.03;;;1.20;;
53108;SDS011;39007;53.090;6.074;2024-03-02T06:32:13;3.40;;;1.38;;
53108;SDS011;39007;53.090;6.074;2024-03-02T06:34:39;1.70;;;1.10;;
53108;SDS011;39007;53.090;6.074;2024-03-02T06:37:05;1.75;;;1.17;;
53108;SDS011;39007;53.090;6.074;2024-03-02T06:39:31;3.70;;;1.30;;
53108;SDS011;39007;53.090;6.074;2024-03-02T06:41:59;2.38;;;1.25;;
53108;SDS011;39007;53.090;6.074;2024-03-02T06:44:28;2.53;;;1.35;;
53108;SDS011;39007;53.090;6.074;2024-03-02T06:46:54;2.67;;;1.27;;
53108;SDS011;39007;53.090;6.074;2024-03-02T06:49:20;2.63;;;1.10;;
53108;SDS011;39007;53.090;6.074;2024-03-02T06:51:46;2.40;;;1.13;;
53108;SDS011;39007;53.090;6.074;2024-03-02T06:54:12;1.70;;;1.20;;
53108;SDS011;39007;53.090;6.074;2024-03-02T06:56:38;2.80;;;1.30;;
53108;SDS011;39007;53.090;6.074;2024-03-02T06:59:04;4.50;;;1.40;;
53108;SDS011;39007;53.090;6.074;2024-03-02T07:01:30;3.35;;;1.35;;
53108;SDS011;39007;53.090;6.074;2024-03-02T07:03:56;1.52;;;1.10;;
53108;SDS011;39007;53.090;6.074;2024-03-02T07:06:22;2.53;;;1.30;;
53108;SDS011;39007;53.090;6.074;2024-03-02T07:08:49;2.00;;;1.10;;
53108;SDS011;39007;53.090;6.074;2024-03-02T07:11:15;2.72;;;1.30;;
53108;SDS011;39007;53.090;6.074;2024-03-02T07:13:41;3.15;;;1.10;;
53108;SDS011;39007;53.090;6.074;2024-03-02T07:16:07;2.35;;;1.20;;
53108;SDS011;39007;53.090;6.074;2024-03-02T07:18:52;2.20;;;1.10;;
53108;SDS011;39007;53.090;6.074;2024-03-02T07:21:20;2.33;;;1.10;;
53108;SDS011;39007;53.090;6.074;2024-03-02T07:23:47;2.67;;;1.30;;
53108;SDS011;39007;53.090;6.074;2024-03-02T07:26:13;2.03;;;1.10;;
53108;SDS011;39007;53.090;6.074;2024-03-02T07:28:46;3.00;;;1.50;;
53108;SDS011;39007;53.090;6.074;2024-03-02T07:31:13;2.63;;;1.30;;
53108;SDS011;39007;53.090;6.074;2024-03-02T07:33:39;2.85;;;1.30;;
53108;SDS011;39007;53.090;6.074;2024-03-02T07:36:05;2.10;;;1.20;;
53108;SDS011;39007;53.090;6.074;2024-03-02T07:38:32;2.60;;;1.27;;
53108;SDS011;39007;53.090;6.074;2024-03-02T07:40:59;3.28;;;1.20;;
53108;SDS011;39007;53.090;6.074;2024-03-02T07:43:25;2.67;;;1.30;;
53108;SDS011;39007;53.090;6.074;2024-03-02T07:45:51;3.30;;;1.40;;
53108;SDS011;39007;53.090;6.074;2024-03-02T07:48:18;3.05;;;1.38;;
53108;SDS011;39007;53.090;6.074;2024-03-02T07:50:44;3.20;;;1.48;;
53108;SDS011;39007;53.090;6.074;2024-03-02T07:53:10;4.53;;;1.50;;
53108;SDS011;39007;53.090;6.074;2024-03-02T07:55:36;5.00;;;1.33;;
53108;SDS011;39007;53.090;6.074;2024-03-02T07:58:02;3.38;;;1.30;;
53108;SDS011;39007;53.090;6.074;2024-03-02T08:00:28;4.55;;;1.40;;
53108;SDS011;39007;53.090;6.074;2024-03-02T08:02:55;4.00;;;1.65;;
53108;SDS011;39007;53.090;6.074;2024-03-02T08:05:21;5.15;;;1.48;;
53108;SDS011;39007;53.090;6.074;2024-03-02T08:07:47;3.05;;;1.40;;
53108;SDS011;39007;53.090;6.074;2024-03-02T08:10:17;3.58;;;1.70;;
53108;SDS011;39007;53.090;6.074;2024-03-02T08:12:44;3.85;;;1.38;;
53108;SDS011;39007;53.090;6.074;2024-03-02T08:15:10;3.70;;;1.50;;
53108;SDS011;39007;53.090;6.074;2024-03-02T08:17:38;3.53;;;1.50;;
53108;SDS011;39007;53.090;6.074;2024-03-02T08:20:09;3.78;;;1.63;;
53108;SDS011;39007;53.090;6.074;2024-03-02T08:22:36;4.15;;;1.67;;
53108;SDS011;39007;53.090;6.074;2024-03-02T08:25:02;5.75;;;1.98;;
53108;SDS011;39007;53.090;6.074;2024-03-02T08:27:28;6.25;;;2.50;;
53108;SDS011;39007;53.090;6.074;2024-03-02T08:29:54;7.43;;;2.80;;
53108;SDS011;39007;53.090;6.074;2024-03-02T08:32:20;6.93;;;2.95;;
53108;SDS011;39007;53.090;6.074;2024-03-02T08:34:47;5.57;;;2.67;;
53108;SDS011;39007;53.090;6.074;2024-03-02T08:37:13;6.30;;;2.58;;
53108;SDS011;39007;53.090;6.074;2024-03-02T08:39:39;6.60;;;2.33;;
53108;SDS011;39007;53.090;6.074;2024-03-02T08:42:05;6.60;;;2.53;;
53108;SDS011;39007;53.090;6.074;2024-03-02T08:44:32;6.35;;;2.42;;
53108;SDS011;39007;53.090;6.074;2024-03-02T08:46:58;6.13;;;2.25;;
53108;SDS011;39007;53.090;6.074;2024-03-02T08:49:24;4.82;;;2.17;;
53108;SDS011;39007;53.090;6.074;2024-03-02T08:51:50;5.72;;;2.22;;
53108;SDS011;39007;53.090;6.074;2024-03-02T08:54:22;5.70;;;2.38;;
53108;SDS011;39007;53.090;6.074;2024-03-02T08:56:49;5.35;;;2.25;;
53108;SDS011;39007;53.090;6.074;2024-03-02T08:59:15;4.55;;;2.30;;
53108;SDS011;39007;53.090;6.074;2024-03-02T09:01:41;4.97;;;2.25;;
53108;SDS011;39007;53.090;6.074;2024-03-02T09:04:08;5.53;;;2.28;;
53108;SDS011;39007;53.090;6.074;2024-03-02T09:06:34;5.82;;;2.53;;
53108;SDS011;39007;53.090;6.074;2024-03-02T09:09:00;5.90;;;2.45;;
53108;SDS011;39007;53.090;6.074;2024-03-02T09:11:26;5.65;;;2.40;;
53108;SDS011;39007;53.090;6.074;2024-03-02T09:13:52;8.35;;;2.40;;
53108;SDS011;39007;53.090;6.074;2024-03-02T09:16:20;6.10;;;2.60;;
53108;SDS011;39007;53.090;6.074;2024-03-02T09:18:46;6.75;;;2.15;;
53108;SDS011;39007;53.090;6.074;2024-03-02T09:21:12;5.07;;;2.00;;
53108;SDS011;39007;53.090;6.074;2024-03-02T09:23:38;5.63;;;2.00;;
53108;SDS011;39007;53.090;6.074;2024-03-02T09:26:05;6.60;;;1.70;;
53108;SDS011;39007;53.090;6.074;2024-03-02T09:28:31;4.30;;;1.60;;
53108;SDS011;39007;53.090;6.074;2024-03-02T09:30:57;4.28;;;1.60;;
53108;SDS011;39007;53.090;6.074;2024-03-02T09:33:23;4.68;;;1.80;;
53108;SDS011;39007;53.090;6.074;2024-03-02T09:35:49;3.63;;;1.40;;
53108;SDS011;39007;53.090;6.074;2024-03-02T09:38:15;6.38;;;1.40;;
53108;SDS011;39007;53.090;6.074;2024-03-02T09:40:41;6.65;;;1.70;;
53108;SDS011;39007;53.090;6.074;2024-03-02T09:43:08;4.43;;;1.40;;
53108;SDS011;39007;53.090;6.074;2024-03-02T09:45:34;5.15;;;1.77;;
53108;SDS011;39007;53.090;6.074;2024-03-02T09:48:00;3.28;;;1.52;;
53108;SDS011;39007;53.090;6.074;2024-03-02T09:50:26;4.53;;;1.70;;
53108;SDS011;39007;53.090;6.074;2024-03-02T09:52:53;5.38;;;1.83;;
53108;SDS011;39007;53.090;6.074;2024-03-02T09:55:19;4.50;;;1.70;;
53108;SDS011;39007;53.090;6.074;2024-03-02T09:57:46;5.18;;;1.60;;
53108;SDS011;39007;53.090;6.074;2024-03-02T10:00:15;3.70;;;1.20;;
53108;SDS011;39007;53.090;6.074;2024-03-02T10:02:42;6.63;;;1.70;;
53108;SDS011;39007;53.090;6.074;2024-03-02T10:05:11;4.22;;;1.60;;
53108;SDS011;39007;53.090;6.074;2024-03-02T10:07:37;3.50;;;1.40;;
53108;SDS011;39007;53.090;6.074;2024-03-02T10:10:13;3.92;;;1.30;;
53108;SDS011;39007;53.090;6.074;2024-03-02T10:12:39;4.75;;;1.45;;
53108;SDS011;39007;53.090;6.074;2024-03-02T10:15:07;5.35;;;1.50;;
53108;SDS011;39007;53.090;6.074;2024-03-02T10:17:34;5.22;;;1.60;;
53108;SDS011;39007;53.090;6.074;2024-03-02T10:22:48;3.42;;;1.40;;
53108;SDS011;39007;53.090;6.074;2024-03-02T10:25:31;4.93;;;1.50;;
53108;SDS011;39007;53.090;6.074;2024-03-02T10:27:57;4.88;;;1.50;;
53108;SDS011;39007;53.090;6.074;2024-03-02T10:30:25;4.18;;;1.50;;
53108;SDS011;39007;53.090;6.074;2024-03-02T10:32:52;3.53;;;1.38;;
53108;SDS011;39007;53.090;6.074;2024-03-02T10:35:19;5.90;;;1.50;;
53108;SDS011;39007;53.090;6.074;2024-03-02T10:37:45;4.30;;;1.42;;
53108;SDS011;39007;53.090;6.074;2024-03-02T10:40:12;4.85;;;1.50;;
53108;SDS011;39007;53.090;6.074;2024-03-02T10:42:39;3.92;;;1.38;;
53108;SDS011;39007;53.090;6.074;2024-03-02T10:45:07;4.78;;;1.33;;
53108;SDS011;39007;53.090;6.074;2024-03-02T10:47:35;4.32;;;1.60;;
53108;SDS011;39007;53.090;6.074;2024-03-02T10:50:02;4.20;;;1.38;;
53108;SDS011;39007;53.090;6.074;2024-03-02T10:52:31;3.95;;;1.40;;
53108;SDS011;39007;53.090;6.074;2024-03-02T10:54:57;4.85;;;1.40;;
53108;SDS011;39007;53.090;6.074;2024-03-02T10:57:23;7.72;;;1.50;;
53108;SDS011;39007;53.090;6.074;2024-03-02T10:59:56;3.72;;;1.60;;
53108;SDS011;39007;53.090;6.074;2024-03-02T11:02:22;5.63;;;1.88;;
53108;SDS011;39007;53.090;6.074;2024-03-02T11:04:50;6.00;;;1.92;;
53108;SDS011;39007;53.090;6.074;2024-03-02T11:07:18;4.50;;;1.48;;
53108;SDS011;39007;53.090;6.074;2024-03-02T11:09:47;4.47;;;1.40;;
53108;SDS011;39007;53.090;6.074;2024-03-02T11:12:31;3.63;;;1.40;;
53108;SDS011;39007;53.090;6.074;2024-03-02T11:15:02;3.40;;;1.35;;
53108;SDS011;39007;53.090;6.074;2024-03-02T11:17:29;5.13;;;1.50;;
53108;SDS011;39007;53.090;6.074;2024-03-02T11:19:55;4.75;;;1.40;;
53108;SDS011;39007;53.090;6.074;2024-03-02T11:22:22;4.30;;;1.50;;
53108;SDS011;39007;53.090;6.074;2024-03-02T11:24:49;5.00;;;1.52;;
53108;SDS011;39007;53.090;6.074;2024-03-02T11:27:58;4.60;;;1.40;;
53108;SDS011;39007;53.090;6.074;2024-03-02T11:30:02;5.35;;;1.77;;
53108;SDS011;39007;53.090;6.074;2024-03-02T11:32:28;4.40;;;1.50;;
53108;SDS011;39007;53.090;6.074;2024-03-02T11:34:54;6.22;;;1.40;;
53108;SDS011;39007;53.090;6.074;2024-03-02T11:37:21;5.00;;;1.48;;
53108;SDS011;39007;53.090;6.074;2024-03-02T11:39:49;3.65;;;1.40;;
53108;SDS011;39007;53.090;6.074;2024-03-02T11:42:15;4.82;;;1.40;;
53108;SDS011;39007;53.090;6.074;2024-03-02T11:44:42;5.50;;;1.70;;
53108;SDS011;39007;53.090;6.074;2024-03-02T11:47:10;5.82;;;1.30;;
53108;SDS011;39007;53.090;6.074;2024-03-02T11:49:40;4.55;;;1.63;;
53108;SDS011;39007;53.090;6.074;2024-03-02T11:52:07;6.57;;;1.80;;
53108;SDS011;39007;53.090;6.074;2024-03-02T11:54:33;5.05;;;1.95;;
53108;SDS011;39007;53.090;6.074;2024-03-02T11:57:01;7.00;;;1.90;;
53108;SDS011;39007;53.090;6.074;2024-03-02T11:59:28;3.80;;;1.52;;
53108;SDS011;39007;53.090;6.074;2024-03-02T12:01:55;5.50;;;1.60;;
53108;SDS011;39007;53.090;6.074;2024-03-02T12:04:21;4.38;;;1.50;;
53108;SDS011;39007;53.090;6.074;2024-03-02T12:06:48;4.18;;;1.50;;
53108;SDS011;39007;53.090;6.074;2024-03-02T12:09:20;4.13;;;1.40;;
53108;SDS011;39007;53.090;6.074;2024-03-02T12:11:46;4.57;;;1.48;;
53108;SDS011;39007;53.090;6.074;2024-03-02T12:14:12;5.45;;;1.63;;
53108;SDS011;39007;53.090;6.074;2024-03-02T12:16:38;3.97;;;1.33;;
53108;SDS011;39007;53.090;6.074;2024-03-02T12:19:06;3.65;;;1.50;;
53108;SDS011;39007;53.090;6.074;2024-03-02T12:21:32;6.45;;;1.70;;
53108;SDS011;39007;53.090;6.074;2024-03-02T12:23:59;5.38;;;1.40;;
53108;SDS011;39007;53.090;6.074;2024-03-02T12:26:25;5.78;;;1.70;;
53108;SDS011;39007;53.090;6.074;2024-03-02T12:28:51;3.40;;;1.40;;
53108;SDS011;39007;53.090;6.074;2024-03-02T12:31:19;3.50;;;1.30;;
53108;SDS011;39007;53.090;6.074;2024-03-02T12:33:45;4.57;;;1.40;;
53108;SDS011;39007;53.090;6.074;2024-03-02T12:36:13;6.15;;;1.42;;
53108;SDS011;39007;53.090;6.074;2024-03-02T12:38:45;4.00;;;1.20;;
53108;SDS011;39007;53.090;6.074;2024-03-02T12:41:14;3.45;;;1.45;;
53108;SDS011;39007;53.090;6.074;2024-03-02T12:43:41;5.22;;;1.63;;
53108;SDS011;39007;53.090;6.074;2024-03-02T12:46:07;4.70;;;1.25;;
53108;SDS011;39007;53.090;6.074;2024-03-02T12:48:34;6.80;;;1.60;;
53108;SDS011;39007;53.090;6.074;2024-03-02T12:51:01;5.50;;;1.40;;
53108;SDS011;39007;53.090;6.074;2024-03-02T12:53:27;3.08;;;1.10;;
53108;SDS011;39007;53.090;6.074;2024-03-02T12:55:53;5.68;;;1.40;;
53108;SDS011;39007;53.090;6.074;2024-03-02T12:58:21;5.20;;;1.40;;
53108;SDS011;39007;53.090;6.074;2024-03-02T13:00:48;5.30;;;1.70;;
53108;SDS011;39007;53.090;6.074;2024-03-02T13:03:14;5.28;;;1.65;;
53108;SDS011;39007;53.090;6.074;2024-03-02T13:05:47;4.80;;;1.48;;
53108;SDS011;39007;53.090;6.074;2024-03-02T13:08:14;7.82;;;1.40;;
53108;SDS011;39007;53.090;6.074;2024-03-02T13:10:40;4.97;;;1.42;;
53108;SDS011;39007;53.090;6.074;2024-03-02T13:13:07;5.22;;;1.50;;
53108;SDS011;39007;53.090;6.074;2024-03-02T13:15:33;4.80;;;1.70;;
53108;SDS011;39007;53.090;6.074;2024-03-02T13:18:00;5.63;;;1.58;;
53108;SDS011;39007;53.090;6.074;2024-03-02T13:20:30;4.38;;;1.52;;
53108;SDS011;39007;53.090;6.074;2024-03-02T13:22:57;4.65;;;1.58;;
53108;SDS011;39007;53.090;6.074;2024-03-02T13:25:23;4.28;;;1.40;;
53108;SDS011;39007;53.090;6.074;2024-03-02T13:27:49;5.70;;;1.45;;
53108;SDS011;39007;53.090;6.074;2024-03-02T13:30:16;4.68;;;1.30;;
53108;SDS011;39007;53.090;6.074;2024-03-02T13:32:42;4.18;;;1.45;;
53108;SDS011;39007;53.090;6.074;2024-03-02T13:35:08;5.03;;;1.42;;
53108;SDS011;39007;53.090;6.074;2024-03-02T13:37:36;4.22;;;1.30;;
53108;SDS011;39007;53.090;6.074;2024-03-02T13:40:02;3.45;;;1.40;;
53108;SDS011;39007;53.090;6.074;2024-03-02T13:42:29;4.03;;;1.45;;
53108;SDS011;39007;53.090;6.074;2024-03-02T13:44:56;4.78;;;1.42;;
53108;SDS011;39007;53.090;6.074;2024-03-02T13:47:22;4.30;;;1.45;;
53108;SDS011;39007;53.090;6.074;2024-03-02T13:49:48;5.07;;;1.60;;
53108;SDS011;39007;53.090;6.074;2024-03-02T13:52:14;3.78;;;1.50;;
53108;SDS011;39007;53.090;6.074;2024-03-02T13:54:45;5.18;;;1.50;;
53108;SDS011;39007;53.090;6.074;2024-03-02T13:57:11;3.45;;;1.27;;
53108;SDS011;39007;53.090;6.074;2024-03-02T13:59:38;3.30;;;1.30;;
53108;SDS011;39007;53.090;6.074;2024-03-02T14:02:04;5.35;;;1.50;;
53108;SDS011;39007;53.090;6.074;2024-03-02T14:04:31;4.97;;;1.55;;
53108;SDS011;39007;53.090;6.074;2024-03-02T14:06:58;5.55;;;1.63;;
53108;SDS011;39007;53.090;6.074;2024-03-02T14:09:24;4.03;;;1.50;;
53108;SDS011;39007;53.090;6.074;2024-03-02T14:11:51;3.83;;;1.33;;
53108;SDS011;39007;53.090;6.074;2024-03-02T14:14:17;5.85;;;1.50;;
53108;SDS011;39007;53.090;6.074;2024-03-02T14:16:43;6.53;;;1.40;;
53108;SDS011;39007;53.090;6.074;2024-03-02T14:19:10;4.25;;;1.42;;
53108;SDS011;39007;53.090;6.074;2024-03-02T14:21:37;3.60;;;1.40;;
53108;SDS011;39007;53.090;6.074;2024-03-02T14:24:03;4.50;;;1.50;;
53108;SDS011;39007;53.090;6.074;2024-03-02T14:26:29;5.60;;;1.67;;
53108;SDS011;39007;53.090;6.074;2024-03-02T14:28:55;5.03;;;1.50;;
53108;SDS011;39007;53.090;6.074;2024-03-02T14:31:22;5.05;;;1.60;;
53108;SDS011;39007;53.090;6.074;2024-03-02T14:33:49;3.88;;;1.48;;
53108;SDS011;39007;53.090;6.074;2024-03-02T14:36:15;4.38;;;1.73;;
53108;SDS011;39007;53.090;6.074;2024-03-02T14:38:41;4.32;;;1.40;;
53108;SDS011;39007;53.090;6.074;2024-03-02T14:41:07;6.25;;;2.05;;
53108;SDS011;39007;53.090;6.074;2024-03-02T14:43:33;5.57;;;2.00;;
53108;SDS011;39007;53.090;6.074;2024-03-02T14:45:59;4.85;;;2.00;;
53108;SDS011;39007;53.090;6.074;2024-03-02T14:48:25;5.20;;;2.10;;
53108;SDS011;39007;53.090;6.074;2024-03-02T14:50:52;7.72;;;2.00;;
53108;SDS011;39007;53.090;6.074;2024-03-02T14:53:18;4.25;;;1.92;;
53108;SDS011;39007;53.090;6.074;2024-03-02T14:55:44;4.88;;;2.40;;